Date StartTime U_cm/s V_cm/s W_cm/s Ustd_cm/s Vstd_cm/s Wstd_cm/s Uvar_(cm/s)^2 Vvar_(cm/s)^2 Wvar_(cm/s)^2 KE_(m/s)^2 TurbulentKE_(m/s)^2 HorizWindSpeed_cm/s FrictionSpeec_cm/s DragCoef SpeedOfSound_m/s SonicTemperature_C Pressure_mb 
06/04/2013  18:18:00       51.896      148.822       -0.757       75.964      108.149       52.428     5770.578    11696.118     2748.677        2.252        1.011      157.610       54.660        0.120      349.454       29.892      858.693
06/04/2013  18:19:00      168.846      137.182        8.974      121.611       99.350       65.039    14789.163     9870.484     4230.086        3.814        1.444      217.549       57.728        0.070      349.488       29.950      858.710
06/04/2013  18:20:00      122.828      154.967       -4.837      111.625      136.784       68.941    12460.101    18709.866     4752.805        3.751        1.796      197.740       72.597        0.135      349.466       29.910      858.719
06/04/2013  18:21:00       88.070      158.850       21.440       87.167      102.518       87.630     7598.168    10509.991     7679.002        2.961        1.289      181.631       61.269        0.114      349.511       29.991      858.731
06/04/2013  18:22:00       27.337      125.469      -11.259       67.321       80.375       37.048     4532.144     6460.120     1372.532        1.449        0.618      128.412       31.430        0.060      349.575       30.104      858.754
06/04/2013  18:23:00       75.708      388.582      -46.230      115.062      149.276       79.129    13239.186    22283.375     6261.410       10.032        2.089      395.889       70.231        0.031      349.329       29.674      858.778
06/04/2013  18:24:00      -43.820      303.041      -39.433       97.824      101.306       50.678     9569.571    10262.998     2568.251        5.885        1.120      306.193       48.037        0.025      349.323       29.664      858.778
06/04/2013  18:25:00      -81.692      371.132      -43.161       97.010      125.399       57.551     9411.018    15724.987     3312.112        8.736        1.422      380.016       64.432        0.029      349.281       29.590      858.750
06/04/2013  18:26:00      166.156      223.473       -6.636      193.526      123.038       75.659    37452.211    15138.319     5724.238        6.794        2.916      278.475       65.789        0.056      349.337       29.689      858.761
06/04/2013  18:27:00      291.828      178.820       15.252      134.358      106.591       89.109    18051.980    11361.650     7940.419        7.736        1.868      342.258       46.192        0.018      349.303       29.629      858.757
06/04/2013  18:28:00      160.789      188.854        9.299      114.811      101.528       82.037    13181.590    10307.858     6730.069        4.591        1.511      248.030       73.943        0.089      349.263       29.559      858.768
06/04/2013  18:29:00       44.535      251.563      -37.715       70.449       84.848       55.246     4963.106     7199.243     3052.124        4.095        0.761      255.475       55.479        0.047      349.266       29.564      858.788
06/04/2013  18:30:00      -57.640      444.297      -49.517       99.915      164.764       60.157     9982.997    27147.217     3618.820       12.195        2.037      448.020       77.599        0.030      349.256       29.546      858.820
06/04/2013  18:31:00     -121.980      294.869      -35.971       68.270      134.844       57.533     4660.821    18183.025     3310.011        6.463        1.308      319.103       61.593        0.037      349.276       29.581      858.825
06/04/2013  18:32:00      -66.079      179.281      -15.040       51.181       75.385       42.917     2619.516     5682.918     1841.896        2.344        0.507      191.071       38.034        0.040      349.217       29.480      858.810
06/04/2013  18:33:00       68.293       86.967        4.743       70.852       55.719       38.343     5020.068     3104.574     1470.206        1.092        0.480      110.576       33.473        0.092      349.201       29.455      858.809
06/04/2013  18:34:00      208.633      159.238       27.186       81.830       82.045       56.355     6696.170     6731.386     3175.935        4.311        0.830      262.459       52.958        0.041      349.253       29.543      858.810
06/04/2013  18:35:00      101.956      227.596      -33.177      100.070      123.757       54.690    10013.919    15315.875     2990.957        4.580        1.416      249.389       58.144        0.054      349.295       29.614      858.825
06/04/2013  18:36:00      106.724      182.040       -1.634       99.393      148.634       81.356     9879.023    22092.161     6618.864        4.155        1.930      211.018       83.086        0.155      349.222       29.490      858.815
06/04/2013  18:37:00       53.425      166.872      -21.271       70.814       94.938       53.793     5014.679     9013.213     2893.726        2.403        0.846      175.216       49.747        0.081      349.291       29.610      858.820
06/04/2013  18:38:00      116.666      218.827       -7.942      111.117      137.672       64.489    12347.015    18953.546     4158.810        4.850        1.773      247.984       65.338        0.069      349.267       29.569      858.826
06/04/2013  18:39:00      202.295      272.576       -3.032      161.054      112.026       81.302    25938.532    12549.794     6610.090        8.016        2.255      339.442       75.207        0.049      349.212       29.470      858.835
06/04/2013  18:40:00      216.065      203.559       20.787      144.312      129.720       82.215    20826.042    16827.232     6759.239        6.647        2.221      296.851       54.858        0.034      349.141       29.348      858.832
06/04/2013  18:41:00      314.788      202.429       37.290      174.667      132.653      102.492    30508.646    17596.698    10504.621       10.002        2.930      374.258       29.258        0.006      349.139       29.344      858.828
06/04/2013  18:42:00      111.127      159.139       -1.537      120.804      124.186       81.498    14593.604    15422.286     6641.978        3.716        1.833      194.099       70.343        0.131      349.163       29.388      858.866
06/04/2013  18:43:00      188.418      174.439       10.926      136.975      112.040       84.805    18762.088    12552.895     7191.897        5.227        1.925      256.769       55.471        0.047      349.124       29.319      858.853
06/04/2013  18:44:00       94.638      142.685       11.746       92.050       91.352       61.644     8473.207     8345.130     3800.028        2.503        1.031      171.218       40.358        0.056      349.149       29.364      858.869
06/04/2013  18:45:00       55.668      123.253       12.017       82.255      105.434       73.697     6765.821    11116.366     5431.219        2.087        1.166      135.241       68.840        0.259      349.219       29.486      858.882
06/04/2013  18:46:00      121.670      190.693       -1.148      100.849      135.437       83.967    10170.473    18343.189     7050.463        4.336        1.778      226.202       77.468        0.117      349.152       29.367      858.898
06/04/2013  18:47:00      127.382       94.199       45.045      102.483       63.699       59.441    10502.831     4057.603     3533.289        2.261        0.905      158.429       20.501        0.017      349.212       29.474      858.900
06/04/2013  18:48:00      137.040      210.524       -2.614      140.132      149.541       70.395    19637.045    22362.517     4955.495        5.502        2.348      251.198       86.520        0.119      349.144       29.353      858.907
06/04/2013  18:49:00      167.079      188.061        8.458      126.084      128.366       88.805    15897.100    16477.954     7886.317        5.180        2.013      251.560       81.565        0.105      349.092       29.262      858.900
06/04/2013  18:50:00      235.013      201.705       11.667      132.701      111.344       86.576    17609.535    12397.391     7495.343        6.677        1.875      309.703       49.502        0.026      349.073       29.228      858.914
06/04/2013  18:51:00      209.202      208.962       33.103      190.853      138.920      105.261    36424.750    19298.783    11079.944        7.765        3.340      295.687       72.119        0.059      349.030       29.156      858.916
06/04/2013  18:52:00       96.746      213.785       -4.614      118.240      134.145       82.316    13980.800    17994.855     6775.854        4.691        1.938      234.657       73.040        0.097      349.042       29.175      858.919
06/04/2013  18:53:00       85.357      125.353       18.734      106.509      108.760       77.161    11344.260    11828.700     5953.810        2.623        1.456      151.655       60.790        0.161      349.077       29.236      858.923
06/04/2013  18:54:00       23.427      297.103      -35.615       64.914      127.443       50.442     4213.852    16241.767     2544.433        5.654        1.150      298.025       62.062        0.043      349.059       29.205      858.925
06/04/2013  18:55:00       93.285      165.063      -11.417       78.535       99.781       65.414     6167.776     9956.264     4279.052        2.824        1.020      189.599       54.972        0.084      349.090       29.260      858.918
06/04/2013  18:56:00       69.359      197.165       12.900      115.047      154.635       91.666    13235.755    23911.912     8402.708        4.469        2.278      209.009       96.742        0.214      349.078       29.238      858.927
06/04/2013  18:57:00      115.928      224.159      -29.752      113.093      146.201       71.293    12790.127    21374.729     5082.632        5.190        1.962      252.362       76.530        0.092      349.034       29.164      858.930
06/04/2013  18:58:00      128.436      175.543       -5.138      118.563       92.202       74.846    14057.207     8501.173     5601.855        3.774        1.408      217.511       58.357        0.072      349.060       29.207      858.914
06/04/2013  18:59:00      189.784      155.643       30.231      116.069       76.978       75.143    13471.904     5925.543     5646.453        4.310        1.252      245.444       41.221        0.028      349.030       29.155      858.907
06/04/2013  19:00:00      199.572      123.909       33.457       72.640       64.843       48.477     5276.576     4204.630     2350.034        3.406        0.592      234.909       27.453        0.014      349.023       29.141      858.893
06/04/2013  19:01:00      130.610      129.321       -4.031       91.978       77.415       49.935     8459.956     5993.107     2493.498        2.537        0.847      183.801       47.635        0.067      349.023       29.144      858.902
06/04/2013  19:02:00      149.621      104.712       14.342      123.780       78.110       54.931    15321.412     6101.198     3017.436        2.899        1.222      182.623       31.453        0.030      349.035       29.165      858.900
06/04/2013  19:03:00      172.074      153.066       14.428      135.048      118.381       73.435    18237.960    14014.127     5392.647        4.544        1.882      230.301       40.005        0.030      349.003       29.108      858.880
06/04/2013  19:04:00      158.218      201.418        5.669      152.478      128.558       70.857    23249.590    16527.247     5020.683        5.521        2.240      256.129       66.228        0.067      349.059       29.205      858.909
06/04/2013  19:05:00      156.733      144.154        4.526      102.208       95.400       69.594    10446.541     9101.229     4843.295        3.487        1.220      212.945       55.630        0.068      349.039       29.171      858.925
06/04/2013  19:06:00       94.571      185.185        6.531      110.287      150.471       81.129    12163.215    22641.627     6581.910        4.232        2.069      207.935       87.392        0.177      349.081       29.242      858.943
06/04/2013  19:07:00      132.068      143.561        3.867      118.332       88.241       73.664    14002.391     7786.469     5426.318        3.264        1.361      195.069       55.533        0.081      349.055       29.200      858.956
06/04/2013  19:08:00      101.814      152.107       -0.981       78.282      125.493       61.486     6128.059    15748.382     3780.545        2.958        1.283      183.037       74.789        0.167      349.052       29.193      858.973
06/04/2013  19:09:00       95.876      157.738      -13.708      108.600      112.445       65.061    11794.022    12643.884     4232.937        3.146        1.434      184.590       51.964        0.079      349.022       29.144      858.996
06/04/2013  19:10:00      166.860      161.795       -0.163      123.808       84.517       69.975    15328.480     7143.097     4896.543        4.069        1.368      232.422       51.649        0.049      349.008       29.119      858.997
06/04/2013  19:11:00       73.213      141.771        1.004       79.767       92.187       57.691     6362.846     8498.492     3328.248        2.182        0.909      159.559       47.297        0.088      348.997       29.100      859.020
06/04/2013  19:12:00       25.599      163.904      -10.882       46.369       95.687       46.678     2150.059     9156.061     2178.831        2.056        0.674      165.891       55.912        0.114      349.000       29.103      859.038
06/04/2013  19:13:00       63.667      190.316       -6.812       82.514      126.397       73.108     6808.610    15976.276     5344.795        3.422        1.406      200.683       76.044        0.144      349.017       29.133      859.056
06/04/2013  19:14:00       56.018      164.312      -18.026       91.150       90.676       54.216     8308.360     8222.075     2939.342        2.496        0.973      173.599       39.703        0.052      348.989       29.085      859.082
06/04/2013  19:15:00       54.631      281.481      -27.525       75.317      119.818       65.452     5672.650    14356.411     4283.940        5.364        1.216      286.734       69.013        0.058      348.942       29.004      859.079
06/04/2013  19:16:00       56.655       72.200       12.048       57.448       62.134       52.322     3300.329     3860.669     2737.576        0.923        0.495       91.774       38.583        0.177      348.964       29.044      859.085
06/04/2013  19:17:00       25.233      229.656      -36.236       48.539       70.201       39.311     2356.024     4928.153     1545.361        3.176        0.441      231.038       36.866        0.025      348.951       29.021      859.086
06/04/2013  19:18:00       48.421      137.383        6.393       74.666      107.491       62.265     5575.017    11554.401     3876.969        2.113        1.050      145.666       58.135        0.159      348.923       28.973      859.087
06/04/2013  19:19:00       68.461       67.212        2.283       69.037       67.037       42.260     4766.070     4493.932     1785.945        1.013        0.552       95.939       39.201        0.167      348.922       28.972      859.097
06/04/2013  19:20:00       92.032       93.614        0.908      101.154       69.963       49.292    10232.141     4894.876     2429.737        1.739        0.878      131.277       32.251        0.060      348.850       28.845      859.086
06/04/2013  19:21:00       91.696      167.489        2.007       79.503      107.694       73.239     6320.705    11598.015     5363.941        2.987        1.164      190.947       75.622        0.157      348.843       28.833      859.103
06/04/2013  19:22:00       39.616      250.727      -23.090       76.868      141.177       68.070     5908.743    19930.847     4633.542        4.771        1.524      253.838       74.420        0.086      348.835       28.819      859.095
06/04/2013  19:23:00       87.658      217.647       -6.349      106.259      127.805       74.063    11290.946    16334.238     5485.286        4.410        1.656      234.636       76.970        0.108      348.810       28.772      859.096
06/04/2013  19:24:00       64.082      171.882      -13.095       62.309       98.543       58.451     3882.383     9710.812     3416.528        2.541        0.850      183.439       52.640        0.082      348.819       28.791      859.113
06/04/2013  19:25:00       80.132      200.764      -10.993       82.409      111.129       65.705     6791.319    12349.744     4317.172        3.515        1.173      216.165       62.422        0.083      348.810       28.773      859.100
06/04/2013  19:26:00      114.309      202.499       -8.596      113.079      112.362       79.886    12786.791    12625.186     6381.731        4.296        1.590      232.535       65.039        0.078      348.822       28.796      859.102
06/04/2013  19:27:00      105.552      239.459      -20.694      109.752      154.134       97.263    12045.482    23757.164     9460.141        5.708        2.263      261.690      102.754        0.154      348.785       28.731      859.108
06/04/2013  19:28:00       69.914      264.909      -25.514       93.750      144.406       91.143     8789.143    20853.054     8306.975        5.682        1.897      273.979       82.345        0.090      348.775       28.715      859.121
06/04/2013  19:29:00       58.653      207.026      -20.752       92.656      137.635       73.866     8585.084    18943.336     5456.213        3.985        1.649      215.174       73.351        0.116      348.775       28.715      859.138
06/04/2013  19:30:00       44.254      223.191      -23.075       62.832      145.955       58.020     3947.798    21302.788     3366.351        4.046        1.431      227.536       77.279        0.115      348.783       28.728      859.154
06/04/2013  19:31:00       78.459      266.894      -27.970       79.323      112.282       63.289     6292.140    12607.221     4005.484        5.053        1.145      278.187       60.947        0.048      348.765       28.696      859.156
06/04/2013  19:32:00       35.338      218.721       -5.744       93.011      116.231       71.052     8651.011    13509.660     5048.344        3.816        1.360      221.557       69.468        0.098      348.748       28.667      859.184
06/04/2013  19:33:00       18.070      241.332      -21.994       67.591      116.237       57.114     4568.553    13511.002     3262.028        4.019        1.067      242.008       60.300        0.062      348.728       28.632      859.184
06/04/2013  19:34:00       31.944      175.562      -10.538       73.071       78.710       61.570     5339.324     6195.340     3790.827        2.364        0.766      178.444       59.882        0.113      348.737       28.649      859.197
06/04/2013  19:35:00       24.076      201.716      -23.116       57.413       84.734       49.145     3296.217     7179.929     2415.276        2.734        0.645      203.148       53.796        0.070      348.761       28.690      859.200
06/04/2013  19:36:00       -2.161      245.935      -24.463       88.132      123.636       64.066     7767.192    15285.905     4104.449        4.412        1.358      245.944       64.581        0.069      348.740       28.653      859.204
06/04/2013  19:37:00       28.268      269.223      -34.103       60.645      123.290       60.255     3677.782    15200.353     3630.633        4.847        1.125      270.703       66.842        0.061      348.717       28.613      859.215
06/04/2013  19:38:00      101.743      179.742       -0.685      105.516      100.464       74.136    11133.604    10093.059     5496.196        3.469        1.336      206.540       67.992        0.108      348.660       28.515      859.216
06/04/2013  19:39:00       58.160      183.775       -8.603       86.034      113.285       69.440     7401.882    12833.461     4821.922        3.114        1.253      192.758       60.752        0.099      348.691       28.569      859.228
06/04/2013  19:40:00        1.116      118.049       17.491      106.161      102.054       69.702    11270.257    10414.931     4858.410        2.039        1.327      118.054       63.976        0.294      348.677       28.545      859.249
06/04/2013  19:41:00       49.363      257.342      -25.215       84.575      129.629       71.175     7152.947    16803.626     5065.867        4.915        1.451      262.033       72.178        0.076      348.695       28.575      859.254
06/04/2013  19:42:00       62.534      185.680      -21.040       70.379       92.407       53.007     4953.183     8539.123     2809.733        2.756        0.815      195.927       50.010        0.065      348.673       28.538      859.264
06/04/2013  19:43:00       47.729      222.363      -30.813       72.465       99.744       50.699     5251.244     9948.920     2570.379        3.522        0.889      227.427       54.541        0.058      348.678       28.547      859.270
06/04/2013  19:44:00       24.929      169.559      -13.095       60.450       72.574       50.554     3654.202     5267.004     2555.676        2.051        0.574      171.382       46.230        0.073      348.645       28.490      859.278
06/04/2013  19:45:00        6.333      277.984      -34.289       82.103      119.757       54.114     6740.939    14341.727     2928.289        5.125        1.201      278.056       60.523        0.047      348.618       28.442      859.296
06/04/2013  19:46:00       92.078      196.506        0.383      103.199      135.048       91.610    10650.005    18237.931     8392.429        4.218        1.864      217.009       83.860        0.149      348.638       28.478      859.306
06/04/2013  19:47:00       43.977      140.433       18.475       82.545      143.216       70.236     6813.686    20510.849     4933.148        2.712        1.613      147.157       86.175        0.343      348.604       28.421      859.323
06/04/2013  19:48:00        5.096      284.558      -45.130       51.987       64.931       31.484     2702.674     4216.011      991.215        4.547        0.395      284.603       22.322        0.006      348.606       28.419      859.346
06/04/2013  19:49:00      -45.232      334.260      -42.859      113.948      106.463       63.065    12984.183    11334.271     3977.256        7.195        1.415      337.306       56.366        0.028      348.651       28.498      859.357
06/04/2013  19:50:00      -40.553      294.735      -52.792       99.103       97.702       51.550     9821.353     9545.693     2657.454        5.666        1.101      297.512       48.703        0.027      348.643       28.485      859.382
06/04/2013  19:51:00      -30.861      294.667      -38.559       60.201       83.892       33.838     3624.133     7037.847     1145.015        5.054        0.590      296.279       32.014        0.012      348.629       28.461      859.404
06/04/2013  19:52:00       43.414      250.809      -27.431       77.117      107.742       46.767     5947.086    11608.414     2187.118        4.264        0.987      254.539       52.596        0.043      348.608       28.424      859.416
06/04/2013  19:53:00       21.466      204.813      -21.059       63.905       83.440       44.523     4083.893     6962.209     1982.329        2.794        0.651      205.934       42.229        0.042      348.569       28.359      859.424
06/04/2013  19:54:00       25.292      297.977      -47.307       56.953       75.959       39.626     3243.624     5769.745     1570.214        5.112        0.529      299.049       29.220        0.010      348.603       28.414      859.433
06/04/2013  19:55:00       55.520      189.740      -10.643       79.997       94.950       58.364     6399.462     9015.516     3406.312        2.901        0.941      197.696       51.735        0.068      348.571       28.361      859.431
06/04/2013  19:56:00      -17.625      252.681      -21.730       63.962       90.454       45.521     4091.187     8181.984     2072.176        3.949        0.717      253.295       42.663        0.028      348.543       28.311      859.436
06/04/2013  19:57:00       11.744      203.115       -6.769       53.361      118.277       61.067     2847.431    13989.481     3729.151        3.100        1.028      203.455       72.429        0.127      348.524       28.279      859.447
06/04/2013  19:58:00       16.755      342.153      -35.807       93.486      101.699       60.959     8739.579    10342.730     3715.977        7.071        1.140      342.563       58.563        0.029      348.602       28.415      859.462
06/04/2013  19:59:00       19.393      302.622      -43.541       61.315       75.377       51.266     3759.531     5681.641     2628.201        5.296        0.603      303.242       42.135        0.019      348.590       28.393      859.470
06/04/2013  20:00:00       19.401      210.514      -26.533       68.689       85.598       40.316     4718.143     7327.014     1625.406        2.953        0.684      211.406       41.834        0.039      348.533       28.295      859.483
06/04/2013  20:01:00       10.650      279.894      -41.124       64.779      105.191       47.164     4196.267    11065.126     2224.475        4.881        0.874      280.096       46.192        0.027      348.540       28.306      859.489
06/04/2013  20:02:00       -0.654      225.821      -16.145       83.298      110.213       54.423     6938.538    12146.919     2961.915        3.665        1.102      225.822       58.069        0.066      348.490       28.221      859.496
06/04/2013  20:03:00       -9.604      219.244      -22.474       61.902       83.138       55.069     3831.849     6911.894     3032.634        3.122        0.689      219.454       50.888        0.054      348.476       28.197      859.492
06/04/2013  20:04:00       45.469       65.967       15.487       55.303       71.064       42.287     3058.458     5050.082     1788.165        0.828        0.495       80.119       33.934        0.179      348.388       28.048      859.508
06/04/2013  20:05:00       31.205      185.631       -2.779       64.017       99.174       62.512     4098.185     9835.396     3907.696        2.664        0.892      188.236       54.923        0.085      348.459       28.167      859.506
06/04/2013  20:06:00       50.400      116.297       10.010       61.174       89.856       58.900     3742.197     8074.079     3469.160        1.572        0.764      126.748       54.191        0.183      348.417       28.097      859.508
06/04/2013  20:07:00       61.187      138.520        0.799       71.904       90.373       57.685     5170.114     8167.311     3327.555        1.980        0.833      151.432       55.996        0.137      348.397       28.062      859.525
06/04/2013  20:08:00       22.869      119.898        5.861       61.981       82.617       52.164     3841.625     6825.576     2721.094        1.416        0.669      122.059       53.381        0.191      348.354       27.988      859.525
06/04/2013  20:09:00       43.871      231.772      -29.766       85.438      119.262       55.347     7299.665    14223.341     3063.343        4.055        1.229      235.888       59.580        0.064      348.420       28.099      859.547
06/04/2013  20:10:00       22.292      180.107      -18.960       60.065       80.352       44.947     3607.809     6456.501     2020.269        2.269        0.604      181.482       44.950        0.061      348.340       27.963      859.542
06/04/2013  20:11:00        2.147      146.656      -21.748       39.265       54.324       29.624     1541.741     2951.075      877.583        1.368        0.269      146.672       23.453        0.026      348.264       27.832      859.555
06/04/2013  20:12:00        7.393      143.277      -18.158       58.825       65.684       39.986     3460.396     4314.332     1598.919        1.514        0.469      143.468       30.735        0.046      348.287       27.873      859.575
06/04/2013  20:13:00       16.681      133.578       -6.827       48.371       79.053       37.442     2339.712     6249.354     1401.893        1.408        0.500      134.616       43.020        0.102      348.317       27.924      859.576
06/04/2013  20:14:00       18.405      158.956      -14.536       58.951      115.651       36.748     3475.181    13375.045     1350.400        2.201        0.910      160.017       46.531        0.085      348.290       27.876      859.598
06/04/2013  20:15:00       -5.989      211.066      -30.738       53.926       55.889       31.180     2908.001     3123.595      972.197        2.627        0.350      211.150       15.450        0.005      348.327       27.940      859.617
06/04/2013  20:16:00       31.959      201.808      -26.502       55.164      101.486       47.814     3043.023    10299.482     2286.196        2.904        0.781      204.322       54.393        0.071      348.367       28.009      859.623
06/04/2013  20:17:00        9.649      161.058      -14.989       61.908       66.195       41.945     3832.649     4381.724     1759.388        1.811        0.499      161.347       44.603        0.076      348.338       27.959      859.633
06/04/2013  20:18:00       14.635      225.377      -19.454       64.584       80.462       49.906     4171.067     6474.163     2490.643        3.226        0.657      225.852       44.293        0.038      348.367       28.008      859.650
06/04/2013  20:19:00        8.971      169.537      -21.592       52.061       58.739       38.691     2710.354     3450.234     1496.991        1.847        0.383      169.775       37.077        0.048      348.336       27.956      859.668
06/04/2013  20:20:00      -24.582      148.034      -23.837       39.828       36.237       21.518     1586.282     1313.151      463.007        1.322        0.168      150.061        6.991        0.002      348.232       27.777      859.691
06/04/2013  20:21:00        3.336      124.590        3.916       48.370       76.890       41.158     2339.638     5912.056     1694.007        1.275        0.497      124.635       39.281        0.099      348.262       27.830      859.692
06/04/2013  20:22:00      -35.451      135.773      -22.493       44.531       84.066       26.484     1983.010     7067.066      701.414        1.497        0.488      140.325       34.971        0.062      348.294       27.883      859.709
06/04/2013  20:23:00      -37.040      112.518      -11.947       58.871       57.658       33.541     3465.787     3324.417     1124.978        1.104        0.396      118.458       26.615        0.050      348.252       27.811      859.694
06/04/2013  20:24:00      -30.850       95.318      -13.807       41.416       72.253       28.874     1715.283     5220.442      833.681        0.900        0.388      100.186       34.206        0.117      348.222       27.760      859.699
06/04/2013  20:25:00      -25.810       64.081      -12.817       52.531       50.893       21.788     2759.525     2590.066      474.729        0.538        0.291       69.084       25.475        0.136      348.247       27.804      859.714
06/04/2013  20:26:00      -39.125      126.811      -18.512       31.501       33.859       23.647      992.299     1146.421      559.167        1.033        0.135      132.709       19.077        0.021      348.227       27.769      859.724
06/04/2013  20:27:00      -54.695       52.485       -9.767       34.822       33.121       27.630     1212.565     1097.018      763.394        0.446        0.154       75.804       23.189        0.094      348.125       27.593      859.756
06/04/2013  20:28:00      -47.372      107.448      -19.101       29.473       50.819       19.906      868.686     2582.618      396.263        0.900        0.192      117.427       14.775        0.016      348.151       27.636      859.766
06/04/2013  20:29:00      -74.878       75.133      -20.071       22.350       49.007       20.149      499.540     2401.695      405.968        0.748        0.165      106.074       14.652        0.019      348.252       27.813      859.778
06/04/2013  20:30:00      -64.248        0.934      -14.937       35.888       38.877       34.344     1287.966     1511.422     1179.536        0.416        0.199       64.254       25.342        0.156      348.323       27.935      859.785
06/04/2013  20:31:00      -26.177       72.960       -9.798       35.109       43.298       19.751     1232.629     1874.753      390.086        0.480        0.175       77.514       19.559        0.064      348.238       27.788      859.789
06/04/2013  20:32:00      -54.613       24.375       -8.417       30.593       13.048       13.629      935.959      170.250      185.758        0.247        0.065       59.806        7.851        0.017      348.252       27.813      859.801
06/04/2013  20:33:00      -57.611      -19.379        0.494       43.917       40.698       20.926     1928.664     1656.293      437.918        0.386        0.201       60.783       26.561        0.191      348.042       27.447      859.811
06/04/2013  20:34:00      -47.512      -19.274       11.307       39.205       32.547       20.111     1537.039     1059.315      404.452        0.288        0.150       51.273       23.822        0.216      347.716       26.885      859.824
06/04/2013  20:35:00      -81.437      -75.664        5.068       36.456       30.346       24.908     1329.061      920.860      620.393        0.763        0.144      111.163       20.907        0.035      347.598       26.683      859.844
06/04/2013  20:36:00      -83.108      -44.342        1.381       39.463       28.268       22.815     1557.346      799.052      520.522        0.588        0.144       94.197       20.207        0.046      347.632       26.742      859.850
06/04/2013  20:37:00     -111.338      -47.016       -0.897       34.497       27.146       19.740     1190.047      736.889      389.654        0.846        0.116      120.858       10.997        0.008      347.599       26.686      859.873
06/04/2013  20:38:00     -145.517      -76.595       -5.000       37.954       33.016       22.665     1440.495     1090.050      513.701        1.505        0.152      164.444       12.329        0.006      347.571       26.637      859.888
06/04/2013  20:39:00     -125.024      -81.627       -4.672       60.996       57.122       34.088     3720.566     3262.922     1161.972        1.523        0.407      149.311       30.797        0.043      347.369       26.288      859.897
06/04/2013  20:40:00     -148.944      -68.470       -7.630       52.549       43.646       27.142     2761.414     1904.952      736.711        1.617        0.270      163.928       28.277        0.030      347.310       26.186      859.911
06/04/2013  20:41:00     -145.362      -61.798       -3.390       71.032       34.424       28.563     5045.476     1185.006      815.862        1.600        0.352      157.953       32.776        0.043      347.275       26.126      859.909
06/04/2013  20:42:00     -146.152      -43.573       -7.381       51.214       41.698       24.664     2622.907     1738.731      608.312        1.414        0.248      152.509       22.244        0.021      347.307       26.182      859.926
06/04/2013  20:43:00     -109.576      -26.453        0.842       46.225       35.627       25.816     2136.744     1269.287      666.443        0.839        0.204      112.724       23.602        0.044      347.244       26.072      859.928
06/04/2013  20:44:00     -139.456      -66.563       -4.266       51.220       44.248       29.752     2623.457     1957.856      885.162        1.468        0.273      154.527       27.934        0.033      347.288       26.148      859.944
06/04/2013  20:45:00     -129.861      -39.965        1.065       47.634       42.441       27.704     2268.986     1801.269      767.497        1.165        0.242      135.872       26.735        0.039      347.256       26.094      859.950
06/04/2013  20:46:00     -159.535      -89.671       -7.874       53.238       36.445       26.760     2834.335     1328.227      716.075        1.922        0.244      183.009       24.035        0.017      347.215       26.022      859.959
06/04/2013  20:47:00      -73.277      -53.942       -0.174       63.181       57.164       34.527     3991.779     3267.672     1192.141        0.836        0.423       90.991       29.382        0.104      347.135       25.885      859.963
06/04/2013  20:48:00      -65.617      -53.346       17.995       54.135       45.776       32.641     2930.624     2095.422     1065.454        0.678        0.305       84.566       28.473        0.113      347.059       25.754      859.973
06/04/2013  20:49:00     -108.625       -6.906       -0.492       56.563       38.625       18.278     3199.391     1491.862      334.093        0.844        0.251      108.844       16.451        0.023      346.923       25.521      859.993
06/04/2013  20:50:00     -158.103      -20.651      -17.400       39.067       29.512       20.475     1526.258      870.961      419.211        1.427        0.141      159.446       21.037        0.017      347.043       25.727      860.002
06/04/2013  20:51:00     -142.395      -35.070      -12.827       45.330       31.943       26.142     2054.841     1020.377      683.427        1.271        0.188      146.650       24.159        0.027      347.063       25.761      860.018
06/04/2013  20:52:00     -139.108      -35.853        0.942       45.101       45.462       26.755     2034.058     2066.780      715.805        1.273        0.241      143.654       24.838        0.030      347.098       25.823      860.015
06/04/2013  20:53:00     -145.124      -51.702      -10.059       38.589       41.147       23.071     1489.082     1693.086      532.263        1.377        0.186      154.058       21.593        0.020      347.205       26.006      860.023
06/04/2013  20:54:00     -108.515       -9.099       -9.831       26.048       21.882       15.845      678.501      478.809      251.070        0.668        0.070      108.896       10.256        0.009      347.139       25.893      860.033
06/04/2013  20:55:00     -141.230      -32.902       -8.867       31.511       39.179       19.565      992.955     1534.983      382.771        1.201        0.146      145.012       11.289        0.006      347.078       25.787      860.041
06/04/2013  20:56:00     -141.429      -52.482       -6.388       49.373       32.018       22.097     2437.663     1025.138      488.296        1.337        0.198      150.853       20.692        0.019      347.048       25.733      860.049
06/04/2013  20:57:00     -152.881      -42.425      -10.727       33.178       32.471       17.797     1100.747     1054.389      316.744        1.388        0.124      158.658       15.998        0.010      347.035       25.712      860.060
06/04/2013  20:58:00     -131.244      -41.085       -7.663       34.147       32.671       18.294     1166.029     1067.404      334.679        1.077        0.128      137.524       17.174        0.016      346.953       25.572      860.074
06/04/2013  20:59:00     -129.722      -64.126      -14.266       36.619       31.415       18.100     1340.986      986.915      327.618        1.190        0.133      144.706       17.505        0.015      346.944       25.556      860.072
06/04/2013  21:00:00     -117.554      -74.227       -1.271       50.085       40.377       22.846     2508.491     1630.283      521.929        1.199        0.233      139.027       11.620        0.007      346.888       25.458      860.077
06/04/2013  21:01:00     -157.037      -57.170      -11.879       55.235       34.293       23.041     3050.877     1176.005      530.889        1.641        0.238      167.120       21.324        0.016      346.870       25.428      860.076
06/04/2013  21:02:00     -129.526      -47.598       -3.828       35.931       29.732       22.577     1291.044      883.987      509.739        1.087        0.134      137.994       20.445        0.022      346.895       25.472      860.085
06/04/2013  21:03:00     -129.096      -60.514       -8.870       35.454       30.623       19.725     1257.018      937.794      389.089        1.149        0.129      142.575       17.761        0.016      346.850       25.394      860.098
06/04/2013  21:04:00      -94.123      -60.028       -3.612       44.763       41.878       24.968     2003.719     1753.726      623.395        0.843        0.219      111.636       25.321        0.051      346.831       25.362      860.105
06/04/2013  21:05:00     -126.789      -74.265      -13.162       24.932       29.478       19.595      621.625      868.928      383.952        1.182        0.094      146.938       10.651        0.005      346.810       25.325      860.116
06/04/2013  21:06:00      -93.650      -66.871       -2.307       38.797       22.832       22.906     1505.241      521.289      524.692        0.790        0.128      115.074       17.657        0.024      346.778       25.271      860.110
06/04/2013  21:07:00      -83.139      -72.117        5.259       45.653       34.395       24.640     2084.233     1183.041      607.120        0.801        0.194      110.059       24.659        0.050      346.709       25.151      860.112
06/04/2013  21:08:00      -75.157      -67.355        2.724       40.892       39.472       27.439     1672.120     1558.074      752.878        0.709        0.199      100.922       22.991        0.052      346.643       25.037      860.115
06/04/2013  21:09:00      -97.770      -64.818        1.754       43.856       33.693       22.540     1923.365     1135.196      508.045        0.866        0.178      117.304       24.349        0.043      346.679       25.100      860.131
06/04/2013  21:10:00      -71.808      -44.214        1.143       31.488       25.227       21.881      991.481      636.405      478.773        0.461        0.105       84.328       17.930        0.045      346.688       25.117      860.147
06/04/2013  21:11:00      -56.163      -19.801        1.884       31.046       22.018       15.713      963.842      484.808      246.886        0.262        0.085       59.552       15.385        0.067      346.716       25.164      860.169
06/04/2013  21:12:00      -98.771      -42.648       -6.427       33.981       20.592       20.886     1154.706      424.049      436.222        0.681        0.101      107.585       20.190        0.035      346.681       25.104      860.175
06/04/2013  21:13:00      -50.127      -29.834       -0.684       37.595       39.736       18.389     1413.416     1578.982      338.162        0.337        0.167       58.334       16.239        0.077      346.639       25.032      860.196
06/04/2013  21:14:00      -77.717      -61.522        0.543       48.686       35.591       22.933     2370.334     1266.694      525.916        0.699        0.208       99.120       25.840        0.068      346.549       24.878      860.202
06/04/2013  21:15:00      -88.949      -90.684       -8.917       44.598       35.960       23.240     1988.971     1293.150      540.116        1.002        0.191      127.025       21.339        0.028      346.490       24.775      860.225
06/04/2013  21:16:00      -82.407      -66.273       -6.404       45.880       37.003       21.460     2104.988     1369.197      460.534        0.758        0.197      105.750       21.671        0.042      346.454       24.711      860.227
06/04/2013  21:17:00     -112.362      -97.796       -1.420       54.595       42.737       28.688     2980.575     1826.441      822.983        1.391        0.281      148.961       26.343        0.031      346.409       24.635      860.243
06/04/2013  21:18:00      -59.291      -70.053        9.045       54.920       45.854       32.740     3016.225     2102.545     1071.893        0.735        0.310       91.776       30.400        0.110      346.309       24.463      860.246
06/04/2013  21:19:00      -93.938      -99.800        9.971       65.206       57.152       31.356     4251.852     3266.309      983.191        1.369        0.425      137.056       35.979        0.069      346.256       24.371      860.260
06/04/2013  21:20:00     -140.802     -109.863        0.128       60.603       45.291       34.067     3672.694     2051.301     1160.578        1.939        0.344      178.592       37.716        0.045      346.237       24.339      860.260
06/04/2013  21:21:00     -147.312     -111.216        3.563       59.375       50.608       30.024     3525.416     2561.146      901.428        2.053        0.349      184.580       32.778        0.032      346.260       24.378      860.282
06/04/2013  21:22:00     -156.075     -107.272       -8.942       58.653       50.036       36.026     3440.152     2503.606     1297.894        2.159        0.362      189.385       33.766        0.032      346.337       24.509      860.288
06/04/2013  21:23:00     -121.173     -102.016        0.090       62.925       47.032       34.186     3959.493     2212.053     1168.689        1.621        0.367      158.399       31.294        0.039      346.302       24.450      860.302
06/04/2013  21:24:00     -129.688      -85.973        0.803       54.689       51.610       34.747     2990.896     2663.615     1207.346        1.554        0.343      155.597       31.517        0.041      346.285       24.423      860.305
06/04/2013  21:25:00     -128.700      -91.411       -4.615       43.554       53.495       29.483     1896.933     2861.702      869.241        1.528        0.281      157.860       27.876        0.031      346.309       24.464      860.301
06/04/2013  21:26:00     -135.976      -70.352        0.133       69.088       41.405       33.002     4773.095     1714.391     1089.144        1.551        0.379      153.098       36.457        0.057      346.237       24.339      860.320
06/04/2013  21:27:00     -113.395      -74.899        4.500       79.686       53.196       33.644     6349.783     2829.763     1131.933        1.440        0.516      135.898       39.100        0.083      346.240       24.344      860.323
06/04/2013  21:28:00     -150.984      -71.956       -3.564       40.019       46.784       22.659     1601.553     2188.728      513.424        1.614        0.215      167.253       20.497        0.015      346.206       24.287      860.336
06/04/2013  21:29:00     -174.628      -34.599      -11.594       45.370       42.100       25.460     2058.451     1772.419      648.188        1.815        0.224      178.023       25.978        0.021      346.176       24.233      860.351
06/04/2013  21:30:00     -158.217      -69.448       -7.780       34.777       39.432       21.713     1209.430     1554.889      471.462        1.658        0.162      172.788       19.202        0.012      346.231       24.328      860.351
06/04/2013  21:31:00      -95.354      -46.890        1.282       44.360       47.501       32.663     1967.794     2256.307     1066.876        0.829        0.265      106.259       27.971        0.069      346.209       24.292      860.361
06/04/2013  21:32:00     -139.587      -40.483       -9.069       43.500       31.284       24.671     1892.222      978.679      608.654        1.234        0.174      145.339       23.211        0.026      346.246       24.355      860.368
06/04/2013  21:33:00     -109.507      -41.924       -1.919       43.372       34.150       18.374     1881.158     1166.236      337.604        0.857        0.169      117.258       18.454        0.025      346.226       24.322      860.388
06/04/2013  21:34:00     -106.833      -34.592       -6.863       21.024       32.981       16.475      441.996     1087.775      271.441        0.723        0.090      112.293        7.049        0.004      346.273       24.402      860.398
06/04/2013  21:35:00     -112.575      -41.110       -2.933       31.154       21.037       17.338      970.597      442.551      300.622        0.804        0.086      119.846       16.701        0.019      346.202       24.279      860.406
06/04/2013  21:36:00     -131.477      -27.914       -2.677       29.981       18.631       14.756      898.844      347.117      217.750        0.977        0.073      134.407       17.862        0.018      346.181       24.244      860.411
06/04/2013  21:37:00     -130.250      -65.662       -9.470       23.554       23.723       14.098      554.800      562.769      198.741        1.134        0.066      145.864        9.158        0.004      346.144       24.180      860.419
06/04/2013  21:38:00     -104.345      -79.081       -2.066       40.223       28.481       24.037     1617.852      811.179      577.755        1.008        0.150      130.927       23.643        0.033      346.066       24.047      860.426
06/04/2013  21:39:00     -117.911      -56.322        3.212       35.968       34.846       25.578     1293.714     1214.226      654.236        1.012        0.158      130.672       21.788        0.028      346.105       24.113      860.438
06/04/2013  21:40:00     -134.930      -47.778       -3.090       22.438       29.784       15.962      503.464      887.058      254.787        1.107        0.082      143.139       11.520        0.006      346.070       24.052      860.452
06/04/2013  21:41:00     -122.139      -57.535       -1.295       32.280       31.363       19.890     1041.977      983.620      395.608        1.033        0.121      135.012       19.124        0.020      346.044       24.010      860.463
06/04/2013  21:42:00     -119.002      -60.019        0.192       34.999       25.084       23.992     1224.910      629.195      575.616        1.010        0.121      133.281       20.154        0.023      346.038       24.000      860.469
06/04/2013  21:43:00     -125.743      -64.255       -5.389       40.786       26.081       21.674     1663.499      680.201      469.771        1.139        0.141      141.209       18.030        0.016      346.056       24.031      860.473
06/04/2013  21:44:00     -127.837      -44.065       -4.821       31.891       28.156       18.772     1017.045      792.758      352.384        1.023        0.108      135.218       19.777        0.021      346.004       23.940      860.480
06/04/2013  21:45:00      -92.339      -72.738       -0.927       44.508       40.878       24.503     1980.965     1670.988      600.388        0.903        0.213      117.547       22.273        0.036      345.992       23.919      860.491
06/04/2013  21:46:00     -115.004      -68.217        2.431       44.300       26.857       26.133     1962.515      721.281      682.916        1.063        0.168      133.714       27.531        0.042      346.008       23.946      860.495
06/04/2013  21:47:00     -141.283      -84.233       -5.197       29.558       28.509       19.662      873.654      812.769      386.578        1.458        0.104      164.487       14.091        0.007      345.997       23.928      860.502
06/04/2013  21:48:00     -131.332      -57.266       -3.054       33.285       34.587       19.004     1107.902     1196.285      361.162        1.160        0.133      143.274       17.311        0.015      346.001       23.936      860.510
06/04/2013  21:49:00     -123.232      -72.410        5.482       46.620       29.812       24.088     2173.417      888.736      580.210        1.205        0.182      142.931       23.877        0.028      345.958       23.861      860.516
06/04/2013  21:50:00     -104.329      -56.995        2.114       35.467       34.327       20.660     1257.932     1178.351      426.843        0.850        0.143      118.882       19.280        0.026      345.973       23.886      860.525
06/04/2013  21:51:00     -108.717      -73.898       -1.852       40.850       39.747       27.697     1668.684     1579.795      767.099        1.065        0.201      131.454       24.560        0.035      345.960       23.864      860.531
06/04/2013  21:52:00      -93.731      -58.523        0.642       46.551       34.954       23.375     2167.022     1221.760      546.412        0.807        0.197      110.501       20.646        0.035      345.939       23.828      860.529
06/04/2013  21:53:00      -89.156      -65.546       -4.297       42.460       32.093       18.213     1802.891     1029.931      331.729        0.771        0.158      110.657       18.941        0.029      345.980       23.900      860.540
06/04/2013  21:54:00      -96.014      -63.851       -1.956       49.251       31.307       23.954     2425.629      980.108      573.817        0.864        0.199      115.307       23.809        0.043      345.931       23.815      860.537
06/04/2013  21:55:00     -111.942      -87.080       -1.386       34.071       30.609       25.079     1160.808      936.899      628.961        1.142        0.136      141.823       22.401        0.025      345.935       23.821      860.539
06/04/2013  21:56:00     -120.422      -77.953       -3.127       40.060       33.604       21.416     1604.834     1129.204      458.636        1.189        0.160      143.451       18.536        0.017      345.914       23.786      860.534
06/04/2013  21:57:00     -116.267      -85.981       -2.459       41.227       30.904       24.070     1699.660      955.050      579.379        1.207        0.162      144.605       24.607        0.029      345.896       23.755      860.544
06/04/2013  21:58:00      -97.992      -82.328        4.986       39.113       32.950       29.451     1529.842     1085.721      867.359        0.994        0.174      127.986       24.704        0.037      345.857       23.688      860.544
06/04/2013  21:59:00     -106.129      -63.361        0.480       39.312       31.988       20.940     1545.444     1023.209      438.470        0.914        0.150      123.605       16.272        0.017      345.880       23.728      860.552
06/04/2013  22:00:00      -77.015      -59.008        8.377       35.547       35.093       26.221     1263.601     1231.533      687.539        0.633        0.159       97.021       20.640        0.045      345.783       23.560      860.563
06/04/2013  22:01:00      -60.000      -55.440        3.078       44.928       36.193       24.484     2018.544     1309.956      599.469        0.530        0.196       81.692       22.194        0.074      345.756       23.513      860.567
06/04/2013  22:02:00      -55.395      -54.415       14.522       43.858       38.319       25.876     1923.517     1468.336      669.567        0.515        0.203       77.651       24.563        0.100      345.688       23.398      860.573
06/04/2013  22:03:00      -47.856      -65.795       16.456       52.303       47.424       31.637     2735.566     2248.991     1000.891        0.644        0.299       81.358       33.593        0.170      345.729       23.466      860.579
06/04/2013  22:04:00     -109.433      -89.681       -3.560       47.066       52.573       26.625     2215.202     2763.956      708.890        1.286        0.284      141.486       26.777        0.036      345.784       23.562      860.583
06/04/2013  22:05:00      -25.391      -74.000        4.986       52.843       57.110       34.924     2792.340     3261.500     1219.657        0.671        0.364       78.235       36.987        0.224      345.785       23.564      860.585
06/04/2013  22:06:00      -26.369      -45.439        3.483       58.896       48.006       35.757     3468.702     2304.569     1278.538        0.491        0.353       52.536       22.556        0.184      345.795       23.581      860.601
06/04/2013  22:07:00      -67.541      -54.310        8.709       81.008       46.098       38.248     6562.367     2125.025     1462.940        0.887        0.508       86.668       39.171        0.204      345.798       23.587      860.600
06/04/2013  22:08:00      -57.038      -50.821        9.741       70.422       50.261       35.213     4959.308     2526.137     1239.923        0.733        0.436       76.394       14.846        0.038      345.872       23.713      860.614
06/04/2013  22:09:00      -57.895      -66.047        5.908       59.944       57.396       35.886     3593.303     3294.245     1287.813        0.796        0.409       87.830       22.838        0.068      345.940       23.831      860.619
06/04/2013  22:10:00      -47.703     -103.533       16.016       71.290       51.964       35.829     5082.316     2700.304     1283.748        1.116        0.453      113.994       24.485        0.046      345.938       23.828      860.629
06/04/2013  22:11:00      -47.325     -109.210       10.128       88.236       55.605       47.428     7785.632     3091.886     2249.426        1.370        0.656      119.023       44.688        0.141      345.908       23.773      860.625
06/04/2013  22:12:00      -87.891      -88.260        4.437       82.315       51.710       39.847     6775.830     2673.959     1587.773        1.328        0.552      124.558       44.877        0.130      345.850       23.675      860.634
06/04/2013  22:13:00     -110.496     -104.036        3.329       84.144       68.359       44.074     7080.194     4673.002     1942.534        1.837        0.685      151.766       46.722        0.095      345.836       23.650      860.629
06/04/2013  22:14:00     -105.950     -119.154        2.881       84.503       58.025       35.228     7140.823     3366.862     1241.030        1.859        0.587      159.446       32.360        0.041      345.825       23.631      860.635
06/04/2013  22:15:00      -17.592      -98.726        8.793       61.731       62.722       44.343     3810.713     3934.040     1966.282        0.992        0.486      100.281       36.360        0.131      345.802       23.594      860.637
06/04/2013  22:16:00      -55.884      -92.814       17.453       97.844       65.939       49.048     9573.392     4347.899     2405.755        1.418        0.816      108.340       44.981        0.172      345.813       23.610      860.638
06/04/2013  22:17:00      -45.331      -96.373       12.071       65.280       66.260       38.887     4261.447     4390.340     1512.212        1.082        0.508      106.502       34.828        0.107      345.801       23.591      860.653
06/04/2013  22:18:00     -123.675     -112.264       -8.272       87.427       63.865       39.609     7643.497     4078.738     1568.836        2.063        0.665      167.029       47.287        0.080      345.782       23.556      860.649
06/04/2013  22:19:00     -103.496      -91.660        9.477       84.582       58.873       36.775     7154.137     3466.082     1352.430        1.559        0.599      138.249       40.449        0.086      345.726       23.462      860.666
06/04/2013  22:20:00      -85.426     -115.807        8.261       63.833       57.770       31.191     4074.652     3337.316      972.853        1.458        0.419      143.906       26.597        0.034      345.753       23.508      860.673
06/04/2013  22:21:00     -129.149     -102.016        6.568       68.422       49.148       34.685     4681.571     2415.529     1203.045        1.771        0.415      164.580       26.909        0.027      345.696       23.409      860.686
06/04/2013  22:22:00     -101.499      -75.464       -4.112       66.307       41.008       35.946     4396.647     1681.659     1292.106        1.169        0.369      126.479       33.157        0.069      345.663       23.354      860.701
06/04/2013  22:23:00     -114.931      -97.982       -3.423       55.375       48.370       29.046     3066.349     2339.682      843.678        1.453        0.312      151.029       27.318        0.033      345.645       23.324      860.710
06/04/2013  22:24:00     -139.764      -93.366       -5.748       71.641       46.850       37.280     5132.455     2194.906     1389.786        1.850        0.436      168.081       39.382        0.055      345.609       23.260      860.730
06/04/2013  22:25:00     -146.765     -137.588       -5.376       52.134       49.093       34.701     2717.986     2410.153     1204.169        2.341        0.317      201.172       34.548        0.029      345.582       23.213      860.743
06/04/2013  22:26:00     -119.835     -121.122      -18.453       61.800       45.637       36.292     3819.238     2082.728     1317.121        1.829        0.361      170.385       30.020        0.031      345.641       23.316      860.756
06/04/2013  22:27:00     -123.810     -116.351       -1.670       55.632       59.692       33.535     3094.877     3563.114     1124.602        1.832        0.389      169.902       32.775        0.037      345.559       23.173      860.765
06/04/2013  22:28:00     -142.461     -114.023      -11.356       42.843       43.504       25.530     1835.519     1892.571      651.797        1.890        0.219      182.473       20.643        0.013      345.595       23.236      860.775
06/04/2013  22:29:00     -146.917     -117.860        5.164       48.603       39.680       30.789     2362.287     1574.504      947.943        2.019        0.244      188.349       26.988        0.021      345.536       23.135      860.791
06/04/2013  22:30:00     -157.163     -104.161       -3.848       54.420       32.740       28.283     2961.486     1071.914      799.909        2.020        0.242      188.547       28.969        0.024      345.531       23.126      860.788
06/04/2013  22:31:00     -127.386      -96.147        6.090       62.854       43.480       33.714     3950.684     1890.486     1136.628        1.624        0.349      159.598       35.232        0.049      345.446       22.981      860.801
06/04/2013  22:32:00     -146.608     -114.376      -10.658       51.724       41.182       29.497     2675.332     1695.943      870.054        1.996        0.262      185.946       28.753        0.024      345.538       23.137      860.800
06/04/2013  22:33:00     -160.661     -116.245        1.979       70.666       45.260       34.207     4993.632     2048.448     1170.102        2.377        0.411      198.305       35.525        0.032      345.571       23.193      860.798
06/04/2013  22:34:00     -133.500      -99.912        4.465       84.700       64.333       41.853     7174.081     4138.768     1751.715        2.044        0.653      166.747       44.906        0.073      345.517       23.101      860.802
06/04/2013  22:35:00     -151.419     -113.164       -0.317       70.140       51.017       31.992     4919.631     2602.770     1023.520        2.214        0.427      189.034       29.875        0.025      345.523       23.111      860.799
06/04/2013  22:36:00     -153.924      -87.747        4.810       82.364       56.074       33.051     6783.767     3144.267     1092.395        2.122        0.551      177.179       40.651        0.053      345.472       23.024      860.816
06/04/2013  22:37:00     -175.694      -97.400       -9.887       73.279       59.739       37.470     5369.768     3568.746     1404.011        2.540        0.517      200.886       32.687        0.026      345.575       23.200      860.814
06/04/2013  22:38:00     -177.543      -79.283       -4.034       66.011       59.030       38.750     4357.441     3484.517     1501.537        2.358        0.467      194.441       32.762        0.028      345.559       23.174      860.821
06/04/2013  22:39:00     -159.668      -45.219       -5.598       58.118       38.022       32.983     3377.646     1445.636     1087.849        1.674        0.296      165.948       32.410        0.038      345.500       23.073      860.833
06/04/2013  22:40:00     -148.641      -31.212       -6.832       49.924       39.585       26.837     2492.405     1566.934      720.211        1.395        0.239      151.882       26.993        0.032      345.499       23.073      860.841
06/04/2013  22:41:00     -133.202      -37.228       -2.145       51.767       39.545       26.553     2679.869     1563.798      705.072        1.204        0.247      138.307       27.902        0.041      345.444       22.979      860.860
06/04/2013  22:42:00     -154.149      -44.065        2.293       63.324       40.983       33.831     4009.918     1679.644     1144.522        1.627        0.342      160.324       35.796        0.050      345.500       23.074      860.866
06/04/2013  22:43:00     -162.481      -47.207       -6.934       47.794       43.991       27.907     2284.279     1935.248      778.776        1.684        0.250      169.200       22.093        0.017      345.624       23.288      860.878
06/04/2013  22:44:00      -86.356      -47.871        2.922       47.769       36.990       21.223     2281.922     1368.262      450.425        0.693        0.205       98.738       23.321        0.056      345.481       23.042      860.896
06/04/2013  22:45:00     -141.237      -21.426      -15.063       36.633       41.478       21.948     1341.947     1720.434      481.709        1.209        0.177      142.853       21.726        0.023      345.719       23.449      860.895
06/04/2013  22:46:00      -83.583       -8.577       -3.277       51.721       31.083       15.448     2675.104      966.172      238.634        0.547        0.194       84.022       17.233        0.042      345.494       23.066      860.914
06/04/2013  22:47:00      -74.404       10.789       -8.910       28.195       34.702       11.186      794.976     1204.252      125.119        0.393        0.106       75.182        4.899        0.004      345.420       22.936      860.938
06/04/2013  22:48:00      -64.315       49.638      -14.921       17.700       19.738       10.695      313.297      389.603      114.378        0.382        0.041       81.242        6.061        0.006      345.355       22.825      860.954
06/04/2013  22:49:00      -62.342       50.026      -11.487       13.598       24.698       10.943      184.916      609.973      119.757        0.372        0.046       79.932       11.397        0.020      345.301       22.732      860.963
06/04/2013  22:50:00      -78.167       27.861       -9.314       20.069       24.520       14.358      402.754      601.235      206.152        0.409        0.061       82.983       14.349        0.030      345.303       22.736      860.979
06/04/2013  22:51:00      -99.933        0.740      -16.154       15.019       21.661       12.547      225.579      469.192      157.426        0.555        0.043       99.936        9.330        0.009      345.207       22.573      860.995
06/04/2013  22:52:00     -106.513        9.229      -13.078       21.512       21.899       12.495      462.769      479.575      156.116        0.635        0.055      106.912        7.302        0.005      345.215       22.586      861.023
06/04/2013  22:53:00      -67.779       33.271       -5.825       28.745       36.858       21.259      826.274     1358.523      451.966        0.419        0.132       75.505       11.693        0.024      345.278       22.695      861.042
06/04/2013  22:54:00      -62.728       83.784      -16.819       30.593       34.313       18.639      935.958     1177.356      347.413        0.685        0.123      104.664       16.867        0.026      345.301       22.732      861.075
06/04/2013  22:55:00      -26.330      161.475      -18.742       46.160       72.157       31.992     2130.765     5206.586     1023.499        1.774        0.418      163.608       31.875        0.038      345.387       22.878      861.089
06/04/2013  22:56:00      -25.073      224.184      -22.397       53.263       63.537       34.187     2836.933     4036.963     1168.751        2.971        0.402      225.582       37.719        0.028      345.565       23.182      861.100
06/04/2013  22:57:00      -55.358      162.147      -22.300       43.145       83.455       32.658     1861.457     6964.666     1066.533        1.987        0.495      171.336       40.639        0.056      345.560       23.174      861.072
06/04/2013  22:58:00       -9.064      114.206      -10.941       30.322       39.785       17.193      919.440     1582.819      295.608        0.802        0.140      114.565       18.274        0.025      345.666       23.360      861.060
06/04/2013  22:59:00      -12.804      141.957      -23.334       38.206       33.264       20.527     1459.671     1106.483      421.350        1.192        0.149      142.533       17.771        0.016      345.644       23.322      861.059
06/04/2013  23:00:00      -67.031      -14.243      -25.164       34.904       25.599       10.757     1218.288      655.322      115.721        0.366        0.099       68.528       13.726        0.040      345.223       22.600      861.067
06/04/2013  23:01:00      -15.972       -6.297        3.624       23.842       21.428       14.857      568.454      459.165      220.740        0.078        0.062       17.168        8.423        0.241      345.170       22.509      861.059
06/04/2013  23:02:00       28.164      -36.808       -6.098       13.709       18.550       14.298      187.937      344.099      204.419        0.146        0.037       46.347       12.152        0.069      345.320       22.767      861.051
06/04/2013  23:03:00       -9.096      -22.600       -1.980       23.263       30.751        9.805      541.179      945.622       96.144        0.109        0.079       24.362        4.224        0.030      345.467       23.019      861.053
06/04/2013  23:04:00      -59.254      -37.617        4.800       52.643       39.937       31.175     2771.297     1594.935      971.877        0.514        0.267       70.186       37.492        0.285      345.111       22.408      861.063
06/04/2013  23:05:00       -3.379      -60.519        7.584       17.416       22.417       17.529      303.313      502.511      307.268        0.242        0.056       60.613       12.784        0.044      345.411       22.922      861.076
06/04/2013  23:06:00       30.053      -79.475      -15.947       39.715       43.305       28.550     1577.310     1875.351      815.109        0.587        0.213       84.968       28.126        0.110      345.212       22.581      861.047
06/04/2013  23:07:00      -50.463        9.595       -3.858       18.698       64.330       23.871      349.611     4138.326      569.816        0.385        0.253       51.367       30.988        0.364      345.113       22.412      861.067
06/04/2013  23:08:00        7.216        5.729        5.254       28.371       39.013       16.489      804.916     1521.977      271.878        0.136        0.130        9.214       16.819        3.332      344.916       22.074      861.071
06/04/2013  23:09:00       14.769      -27.709        0.612       12.732       27.379       14.618      162.092      749.586      213.695        0.106        0.056       31.399       16.762        0.285      345.120       22.424      861.061
06/04/2013  23:10:00       47.775       58.376       34.435       32.399       16.215       22.568     1049.682      262.914      509.315        0.435        0.091       75.433       15.306        0.041      344.841       21.946      861.080
06/04/2013  23:11:00       30.233       26.841       -7.365       16.033       12.181        8.782      257.073      148.385       77.125        0.109        0.024       40.429        5.417        0.018      344.984       22.193      861.117
06/04/2013  23:12:00       27.881      -36.281       -2.278       23.445       30.544       11.191      549.658      932.926      125.231        0.185        0.080       45.756       10.399        0.052      344.978       22.182      861.121
06/04/2013  23:13:00      -11.257      -60.093      -11.403       21.785       25.441       13.050      474.582      647.252      170.291        0.258        0.065       61.138        8.041        0.017      345.119       22.420      861.125
06/04/2013  23:14:00      -25.510      -13.500       11.640       33.542       16.732       11.816     1125.048      279.948      139.608        0.126        0.077       28.862        9.625        0.111      345.138       22.454      861.139
06/04/2013  23:15:00      -24.577       -8.016        2.060       19.243       10.731       12.495      370.287      115.155      156.122        0.066        0.032       25.851        8.146        0.099      345.279       22.694      861.153
06/04/2013  23:16:00        5.925        0.420        5.975       10.944        7.214        5.416      119.767       52.046       29.334        0.014        0.010        5.940        4.690        0.623      345.284       22.704      861.167
06/04/2013  23:17:00        3.109      -13.689        1.651       10.349       16.127        8.293      107.095      260.083       68.780        0.032        0.022       14.038        7.465        0.283      345.409       22.920      861.168
06/04/2013  23:18:00      -28.347      -27.459        0.531       27.826       15.742       13.273      774.305      247.807      176.185        0.138        0.060       39.466       13.766        0.122      345.205       22.569      861.176
06/04/2013  23:19:00        7.503      -68.271       -5.206       22.773       28.105       13.172      518.612      789.865      173.495        0.311        0.074       68.682        8.720        0.016      345.200       22.562      861.181
06/04/2013  23:20:00      -12.663      -33.321       -0.456       27.993       31.900       13.091      783.626     1017.611      171.369        0.162        0.099       35.646       10.759        0.091      345.147       22.470      861.200
06/04/2013  23:21:00       34.679       -7.703        2.542       12.788       17.541       14.015      163.529      307.687      196.419        0.097        0.033       35.524        5.607        0.025      344.914       22.069      861.219
06/04/2013  23:22:00       21.528      -37.595       -1.050       14.162       26.112       11.466      200.557      681.823      131.467        0.145        0.051       43.323        6.238        0.021      345.141       22.457      861.223
06/04/2013  23:23:00       16.315      -77.325       -2.237       21.104       28.760       19.066      445.392      827.165      363.510        0.394        0.082       79.027       14.878        0.035      345.482       23.044      861.224
06/04/2013  23:24:00      -36.986      -31.493       -4.961       25.612       33.356       14.485      655.984     1112.653      209.825        0.218        0.099       48.578       14.198        0.085      345.337       22.794      861.226
06/04/2013  23:25:00      -39.553      -41.451        2.680       24.125       28.109       21.362      582.021      790.118      456.350        0.256        0.091       57.294       18.107        0.100      345.035       22.278      861.236
06/04/2013  23:26:00      -29.759      -91.638       -4.036       46.857       29.461       20.698     2195.559      867.970      428.402        0.639        0.175       96.349       15.585        0.026      345.141       22.460      861.225
06/04/2013  23:27:00      -53.620      -69.017       -3.026       30.722       34.024       24.444      943.851     1157.610      597.517        0.517        0.135       87.398       19.058        0.048      345.147       22.471      861.218
06/04/2013  23:28:00     -103.568      -55.972       -5.701       43.130       37.072       22.340     1860.189     1374.366      499.054        0.881        0.187      117.726       11.995        0.010      345.102       22.393      861.222
06/04/2013  23:29:00      -85.835      -79.049       -8.505       56.673       38.915       25.855     3211.793     1514.360      668.471        0.954        0.270      116.690       25.556        0.048      345.048       22.301      861.225
06/04/2013  23:30:00     -109.723      -78.118       -3.123       65.320       66.438       38.519     4266.644     4414.044     1483.691        1.416        0.508      134.691       31.873        0.056      344.959       22.149      861.221
06/04/2013  23:31:00      -61.892      -47.318       11.643       60.378       45.623       31.286     3645.540     2081.457      978.837        0.645        0.335       77.908       16.100        0.043      344.897       22.042      861.232
06/04/2013  23:32:00       33.151        6.058        2.006       24.943       39.489       23.901      622.143     1559.381      571.281        0.195        0.138       33.699       10.321        0.094      344.893       22.035      861.251
06/04/2013  23:33:00       11.791       37.241      -14.834       26.514       26.196       16.023      702.993      686.242      256.732        0.170        0.082       39.063       15.167        0.151      344.792       21.861      861.275
06/04/2013  23:34:00      -53.565        5.765      -10.018       38.131       20.764       12.285     1453.949      431.148      150.912        0.252        0.102       53.874       10.884        0.041      344.829       21.926      861.297
06/04/2013  23:35:00      -68.878      -24.204       -8.490       27.587       19.073       13.313      761.042      363.770      177.238        0.335        0.065       73.007       11.210        0.024      344.886       22.024      861.306
06/04/2013  23:36:00       26.154      -44.291        1.486       32.685       27.143       15.011     1068.337      736.715      225.322        0.234        0.102       51.437       13.816        0.072      344.807       21.888      861.324
06/04/2013  23:37:00        8.637        6.025       14.593       12.528       36.651       19.088      156.945     1343.303      364.345        0.109        0.093       10.531       21.131        4.026      344.616       21.561      861.339
06/04/2013  23:38:00      -23.277       57.329       -7.458       31.783       15.404       23.063     1010.173      237.297      531.914        0.283        0.089       61.874       24.209        0.153      344.656       21.630      861.368
06/04/2013  23:39:00      -24.225       27.552      -12.527       22.596       22.166        8.881      510.587      491.311       78.878        0.129        0.054       36.687       13.622        0.138      344.764       21.815      861.387
06/04/2013  23:40:00        1.812       -8.388        3.156        6.611       10.521        5.695       43.706      110.689       32.432        0.014        0.009        8.582        7.050        0.675      344.713       21.728      861.379
06/04/2013  23:41:00        5.346      -32.496       -2.532        7.566       13.385        7.532       57.242      179.152       56.736        0.069        0.015       32.933        5.269        0.026      344.821       21.912      861.395
06/04/2013  23:42:00       17.605       -1.330        5.411       21.660        8.471       10.433      469.135       71.763      108.853        0.050        0.032       17.655        7.389        0.175      344.747       21.785      861.452
06/04/2013  23:43:00       29.016       55.024       52.479       28.207       56.512       46.715      795.626     3193.626     2182.247        0.640        0.309       62.206       50.795        0.667      344.608       21.546      861.469
06/04/2013  23:44:00      136.680       82.784       46.102       74.592       64.465       45.661     5563.984     4155.730     2084.906        1.973        0.590      159.795       39.748        0.062      344.442       21.262      861.511
06/04/2013  23:45:00      198.826       97.688       25.644       57.294       57.779       34.313     3282.595     3338.426     1177.391        2.876        0.390      221.528       11.053        0.002      344.216       20.874      861.585
06/04/2013  23:46:00      166.991      103.573       31.620       54.981       46.185       45.279     3022.912     2133.066     2050.147        2.341        0.360      196.503       32.302        0.027      344.053       20.598      861.628
06/04/2013  23:47:00       89.160       42.102       47.972       71.578       56.606       37.989     5123.348     3204.238     1443.202        1.090        0.489       98.601       37.265        0.143      344.183       20.821      861.629
06/04/2013  23:48:00       92.042       37.188       41.148       60.775       50.571       35.868     3693.582     2557.381     1286.532        0.954        0.377       99.270       28.144        0.080      344.487       21.341      861.642
06/04/2013  23:49:00       43.469       24.004       47.532       43.220       35.056       32.571     1867.937     1228.937     1060.883        0.444        0.208       49.657       31.940        0.414      344.450       21.278      861.650
06/04/2013  23:50:00       63.811        3.396       39.793       46.996       42.988       28.273     2208.587     1847.927      799.367        0.526        0.243       63.901       33.821        0.280      344.620       21.569      861.613
06/04/2013  23:51:00       73.366      -83.157        4.271       27.158       22.253       17.926      737.569      495.214      321.339        0.693        0.078      110.895       13.289        0.014      344.779       21.839      861.581
06/04/2013  23:52:00       49.072      -84.383        0.243       21.834       32.194       20.727      476.704     1036.469      429.599        0.574        0.097       97.615       14.503        0.022      344.885       22.020      861.554
06/04/2013  23:53:00       29.207      -84.070        3.567       20.908       21.807       15.027      437.161      475.566      225.811        0.454        0.057       89.000        9.663        0.012      345.067       22.333      861.529
06/04/2013  23:54:00      -27.572      -50.877        1.652       24.917       29.920       15.461      620.864      895.177      239.047        0.255        0.088       57.868        8.954        0.024      344.925       22.090      861.516
06/04/2013  23:55:00     -110.432      -43.827      -10.344       29.950       24.135       13.981      897.014      582.475      195.466        0.795        0.084      118.811       11.158        0.009      344.766       21.817      861.503
06/04/2013  23:56:00      -90.143      -48.234      -10.797       16.595       16.864       11.592      275.389      284.393      134.383        0.563        0.035      102.236        5.769        0.003      344.677       21.665      861.494
06/04/2013  23:57:00      -48.915      -34.938       -9.643       10.278        9.202        7.254      105.641       84.679       52.621        0.197        0.012       60.111        3.160        0.003      344.803       21.882      861.486
06/04/2013  23:58:00      -55.328      -41.264      -10.875       28.929       17.511       13.709      836.877      306.652      187.933        0.311        0.067       69.021        7.784        0.013      344.743       21.779      861.456
06/04/2013  23:59:00     -136.427      -59.714      -11.965       20.347       20.009       13.953      413.980      400.379      194.692        1.166        0.050      148.923       10.989        0.005      344.845       21.953      861.464
